createdAt,value
2019-04-05T00:08:02.995Z,78.90
2019-04-05T00:10:34.938Z,79.24
2019-04-05T00:15:50.319Z,79.06
2019-04-05T00:18:22.269Z,79.21
2019-04-05T00:20:54.239Z,79.36
2019-04-05T00:23:26.194Z,79.48
2019-04-05T00:25:58.140Z,79.64
2019-04-05T00:28:30.064Z,79.73
2019-04-05T00:31:02.054Z,79.86
2019-04-05T00:33:53.573Z,79.49
2019-04-05T00:36:25.492Z,79.55
2019-04-05T00:38:57.419Z,79.27
2019-04-05T00:41:29.364Z,79.44
2019-04-05T00:44:01.294Z,79.63
2019-04-05T00:46:33.236Z,79.64
2019-04-05T00:49:05.163Z,79.15
2019-04-05T00:51:37.180Z,79.04
2019-04-05T00:54:09.107Z,79.23
2019-04-05T00:56:41.024Z,79.46
2019-04-05T00:59:19.884Z,79.58
2019-04-05T01:02:32.638Z,79.59
2019-04-05T01:05:04.639Z,79.64
2019-04-05T01:07:36.571Z,79.51
2019-04-05T01:10:49.330Z,79.53
2019-04-05T01:13:21.355Z,79.28
2019-04-05T01:15:53.306Z,79.41
2019-04-05T01:18:25.211Z,79.53
2019-04-05T01:21:38.018Z,79.52
2019-04-05T01:24:50.768Z,79.85
2019-04-05T01:28:03.702Z,80.13
2019-04-05T01:30:35.725Z,80.74
2019-04-05T01:33:07.641Z,80.87
2019-04-05T01:35:39.601Z,81.38
2019-04-05T01:38:11.654Z,81.50
2019-04-05T01:41:24.435Z,81.42
2019-04-05T01:43:56.338Z,81.97
2019-04-05T01:46:28.369Z,81.56
2019-04-05T01:49:00.268Z,82.16
2019-04-05T01:52:13.049Z,82.29
2019-04-05T01:54:45.000Z,81.97
2019-04-05T01:57:17.029Z,81.85
2019-04-05T01:59:49.072Z,81.78
2019-04-05T02:02:21.092Z,82.11
2019-04-05T02:04:53.131Z,82.41
2019-04-05T02:07:25.097Z,82.91
2019-04-05T02:10:37.855Z,82.95
2019-04-05T02:13:09.845Z,82.74
2019-04-05T02:15:41.789Z,82.72
2019-04-05T02:18:13.880Z,82.62
2019-04-05T02:20:45.855Z,82.33
2019-04-05T02:23:17.798Z,82.67
2019-04-05T02:25:49.754Z,82.42
2019-04-05T02:28:21.724Z,82.62
2019-04-05T02:30:53.663Z,82.82
2019-04-05T02:33:25.634Z,82.64
2019-04-05T02:35:57.576Z,82.73
2019-04-05T02:38:29.536Z,82.92
2019-04-05T02:41:02.128Z,83.13
2019-04-05T02:43:34.971Z,82.73
2019-04-05T02:46:22.667Z,82.88
2019-04-05T02:48:41.529Z,82.90
2019-04-05T02:51:15.398Z,83.70
2019-04-05T02:53:47.977Z,84.11
2019-04-05T02:56:20.272Z,84.23
2019-04-05T02:58:53.126Z,84.93
2019-04-05T03:01:25.485Z,84.94
2019-04-05T03:03:57.449Z,85.19
2019-04-05T03:06:29.487Z,85.29
2019-04-05T03:09:03.732Z,85.30
2019-04-05T03:11:37.432Z,85.53
2019-04-05T03:14:09.981Z,85.32
2019-04-05T03:16:44.389Z,85.46
2019-04-05T03:19:22.440Z,85.51
2019-04-05T03:22:00.620Z,85.12
2019-04-05T03:24:34.975Z,85.47
2019-04-05T03:27:18.023Z,85.93
2019-04-05T03:29:49.976Z,86.18
2019-04-05T03:32:22.210Z,86.22
2019-04-05T03:34:55.295Z,86.01
2019-04-05T03:37:27.322Z,85.95
2019-04-05T03:39:59.783Z,85.83
2019-04-05T03:42:31.714Z,86.08
2019-04-05T03:45:04.003Z,85.93
2019-04-05T03:47:35.941Z,85.97
2019-04-05T03:50:08.097Z,86.28
2019-04-05T03:52:40.102Z,86.20
2019-04-05T03:55:12.103Z,86.38
2019-04-05T03:57:44.053Z,85.67
2019-04-05T04:00:16.158Z,84.75
2019-04-05T04:02:48.106Z,85.38
2019-04-05T04:05:20.083Z,84.98
2019-04-05T04:07:52.040Z,84.10
2019-04-05T04:10:24.910Z,84.45
2019-04-05T04:12:56.870Z,84.53
2019-04-05T04:15:28.855Z,85.20
2019-04-05T04:18:00.845Z,85.81
2019-04-05T04:20:43.850Z,85.89
2019-04-05T04:23:16.174Z,86.20
2019-04-05T04:25:48.754Z,86.10
2019-04-05T04:28:20.877Z,86.15
2019-04-05T04:30:53.433Z,86.15
2019-04-05T04:33:25.364Z,86.04
2019-04-05T04:35:57.500Z,85.83
2019-04-05T04:38:29.546Z,85.79
2019-04-05T04:41:01.732Z,85.79
2019-04-05T04:43:34.434Z,85.47
2019-04-05T04:46:07.002Z,85.58
2019-04-05T04:48:39.017Z,85.48
2019-04-05T04:51:11.233Z,85.64
2019-04-05T04:53:43.331Z,85.56
2019-04-05T04:56:15.592Z,84.83
2019-04-05T04:58:47.598Z,85.25
2019-04-05T05:01:20.065Z,85.53
2019-04-05T05:03:52.039Z,85.30
2019-04-05T05:06:23.983Z,85.31
2019-04-05T05:08:56.159Z,85.17
2019-04-05T05:11:28.372Z,85.12
2019-04-05T05:14:00.452Z,85.08
2019-04-05T05:16:32.388Z,85.25
2019-04-05T05:19:04.391Z,85.16
2019-04-05T05:21:36.313Z,85.11
2019-04-05T05:24:08.304Z,85.39
2019-04-05T05:26:40.448Z,85.27
2019-04-05T05:29:12.715Z,85.34
2019-04-05T05:31:44.666Z,85.32
2019-04-05T05:34:16.636Z,84.84
2019-04-05T05:36:48.712Z,84.87
2019-04-05T05:39:21.095Z,84.76
2019-04-05T05:41:53.033Z,84.33
2019-04-05T05:44:24.993Z,83.89
2019-04-05T05:46:56.948Z,83.72
2019-04-05T05:49:28.929Z,83.68
2019-04-05T05:52:00.904Z,83.96
2019-04-05T05:54:32.884Z,83.70
2019-04-05T05:57:04.984Z,83.82
2019-04-05T05:59:36.938Z,83.49
2019-04-05T06:02:08.902Z,83.76
2019-04-05T06:04:40.869Z,83.56
2019-04-05T06:07:12.820Z,82.73
2019-04-05T06:09:47.586Z,83.10
2019-04-05T06:12:18.723Z,83.23
2019-04-05T06:14:50.697Z,82.58
2019-04-05T06:17:22.651Z,82.90
2019-04-05T06:19:54.697Z,82.01
2019-04-05T06:22:26.656Z,82.08
2019-04-05T06:24:58.626Z,82.06
2019-04-05T06:27:30.625Z,82.01
2019-04-05T06:30:03.460Z,81.61
2019-04-05T06:32:35.464Z,80.85
2019-04-05T06:35:07.501Z,80.89
2019-04-05T06:37:39.447Z,81.58
2019-04-05T06:40:11.735Z,81.82
2019-04-05T06:42:43.684Z,81.44
2019-04-05T06:45:15.683Z,81.42
2019-04-05T06:47:47.639Z,81.78
2019-04-05T06:50:19.636Z,80.93
2019-04-05T06:52:51.604Z,80.87
2019-04-05T06:55:23.588Z,80.95
2019-04-05T06:57:55.618Z,80.32
2019-04-05T07:00:28.568Z,80.43
2019-04-05T07:03:01.134Z,80.48
2019-04-05T07:05:33.153Z,80.41
2019-04-05T07:08:05.140Z,80.53
2019-04-05T07:10:37.318Z,80.76
2019-04-05T07:13:09.440Z,81.11
2019-04-05T07:15:41.398Z,81.13
2019-04-05T07:18:13.442Z,80.90
2019-04-05T07:20:45.435Z,80.58
2019-04-05T07:23:17.445Z,80.66
2019-04-05T07:25:49.397Z,80.73
2019-04-05T07:28:21.390Z,80.78
2019-04-05T07:30:53.360Z,80.51
2019-04-05T07:33:25.353Z,80.17
2019-04-05T07:35:57.321Z,80.01
2019-04-05T07:38:29.305Z,79.77
2019-04-05T07:41:01.325Z,79.04
2019-04-05T07:43:33.328Z,79.19
2019-04-05T07:46:05.271Z,79.22
2019-04-05T07:48:44.638Z,78.92
2019-04-05T07:51:11.124Z,79.06
2019-04-05T07:53:43.084Z,78.58
2019-04-05T07:56:15.039Z,78.07
2019-04-05T07:58:47.009Z,78.11
2019-04-05T08:01:19.047Z,78.24
2019-04-05T08:03:51.056Z,77.95
2019-04-05T08:06:23.022Z,77.20
2019-04-05T08:09:07.941Z,77.30
2019-04-05T08:11:41.339Z,78.31
2019-04-05T08:14:14.453Z,78.81
2019-04-05T08:16:46.443Z,78.54
2019-04-05T08:19:18.475Z,78.87
2019-04-05T08:21:50.421Z,78.32
2019-04-05T08:24:22.393Z,78.36
2019-04-05T08:26:54.368Z,77.85
2019-04-05T08:29:26.360Z,77.11
2019-04-05T08:31:58.383Z,77.35
2019-04-05T08:34:30.384Z,77.71
2019-04-05T08:37:02.360Z,77.59
2019-04-05T08:39:34.372Z,78.04
2019-04-05T08:42:06.375Z,78.11
2019-04-05T08:44:38.395Z,78.50
2019-04-05T08:47:10.392Z,78.63
2019-04-05T08:49:42.422Z,78.81
2019-04-05T08:52:14.441Z,78.90
2019-04-05T08:54:46.451Z,78.78
2019-04-05T08:57:18.442Z,78.35
2019-04-05T08:59:53.278Z,77.94
2019-04-05T09:02:24.561Z,78.23
2019-04-05T09:04:56.558Z,78.25
2019-04-05T09:07:28.663Z,77.50
2019-04-05T09:10:00.816Z,76.27
2019-04-05T09:12:32.827Z,74.83
2019-04-05T09:15:05.220Z,74.00
2019-04-05T09:17:37.235Z,74.59
2019-04-05T09:20:09.627Z,73.92
2019-04-05T09:22:41.620Z,74.15
2019-04-05T09:25:13.639Z,73.14
2019-04-05T09:27:45.630Z,72.50
2019-04-05T09:30:17.956Z,71.56
2019-04-05T09:32:50.066Z,71.04
2019-04-05T09:35:22.123Z,71.07
2019-04-05T09:37:54.251Z,70.89
2019-04-05T09:40:26.351Z,71.15
2019-04-05T09:42:58.432Z,70.14
2019-04-05T09:45:30.459Z,70.84
2019-04-05T09:48:02.486Z,71.56
2019-04-05T09:50:34.494Z,72.57
2019-04-05T09:53:06.511Z,72.85
2019-04-05T09:55:38.580Z,72.57
2019-04-05T09:58:10.586Z,72.04
2019-04-05T10:00:42.745Z,71.20
2019-04-05T10:03:14.792Z,71.39
2019-04-05T10:05:48.112Z,71.60
2019-04-05T10:08:20.151Z,71.90
2019-04-05T10:10:52.291Z,72.15
2019-04-05T10:13:24.289Z,70.85
2019-04-05T10:15:56.265Z,71.34
2019-04-05T10:18:28.287Z,70.47
2019-04-05T10:21:00.250Z,70.47
2019-04-05T10:23:32.243Z,71.00
2019-04-05T10:26:04.798Z,71.57
2019-04-05T10:28:36.830Z,70.69
2019-04-05T10:31:08.809Z,71.52
2019-04-05T10:33:40.802Z,71.66
2019-04-05T10:36:12.789Z,72.10
2019-04-05T10:38:44.802Z,70.87
2019-04-05T10:41:16.810Z,69.90
2019-04-05T10:43:48.798Z,70.03
2019-04-05T10:46:20.795Z,69.94
2019-04-05T10:48:52.843Z,69.28
2019-04-05T10:51:25.157Z,68.28
2019-04-05T10:53:57.203Z,69.38
2019-04-05T10:56:36.514Z,69.87
2019-04-05T10:59:10.189Z,69.69
2019-04-05T11:01:42.339Z,69.34
2019-04-05T11:04:17.427Z,69.36
2019-04-05T11:06:51.243Z,69.82
2019-04-05T11:09:23.318Z,70.19
2019-04-05T11:11:55.339Z,69.05
2019-04-05T11:14:27.336Z,70.12
2019-04-05T11:16:59.376Z,70.28
2019-04-05T11:19:32.678Z,70.86
2019-04-05T11:22:05.667Z,70.45
2019-04-05T11:24:37.749Z,70.76
2019-04-05T11:27:09.783Z,70.52
2019-04-05T11:29:41.832Z,70.37
2019-04-05T11:32:15.009Z,70.16
2019-04-05T11:34:47.046Z,69.20
2019-04-05T11:37:19.769Z,69.98
2019-04-05T11:39:52.221Z,70.28
2019-04-05T11:42:24.882Z,70.19
2019-04-05T11:44:57.893Z,70.66
2019-04-05T11:47:30.058Z,70.27
2019-04-05T11:50:02.159Z,69.83
2019-04-05T11:52:34.301Z,69.87
2019-04-05T11:55:07.082Z,69.34
2019-04-05T11:57:41.074Z,68.76
2019-04-05T12:00:18.433Z,68.17
2019-04-05T12:02:55.461Z,67.50
2019-04-05T12:05:28.013Z,68.65
2019-04-05T12:08:02.250Z,68.14
2019-04-05T12:10:35.503Z,67.35
2019-04-05T12:13:07.597Z,68.00
2019-04-05T12:15:39.752Z,68.04
2019-04-05T12:18:11.911Z,67.50
2019-04-05T12:20:52.005Z,67.78
2019-04-05T12:23:18.019Z,68.01
2019-04-05T12:25:50.240Z,66.67
2019-04-05T12:28:22.280Z,67.29
2019-04-05T12:30:54.670Z,66.93
2019-04-05T12:33:26.615Z,67.27
2019-04-05T12:35:58.659Z,67.03
2019-04-05T12:38:32.466Z,66.12
2019-04-05T12:41:04.930Z,67.06
2019-04-05T12:43:37.041Z,67.51
2019-04-05T12:46:09.040Z,66.93
2019-04-05T12:48:45.425Z,66.76
2019-04-05T12:51:16.467Z,66.79
2019-04-05T12:53:48.469Z,67.51
2019-04-05T12:56:20.451Z,65.57
2019-04-05T12:58:55.922Z,65.50
2019-04-05T13:01:28.542Z,66.15
2019-04-05T13:04:00.594Z,66.45
2019-04-05T13:06:32.628Z,65.59
2019-04-05T13:09:08.245Z,65.84
2019-04-05T13:11:40.731Z,65.70
2019-04-05T13:14:12.844Z,65.08
2019-04-05T13:16:49.419Z,64.86
2019-04-05T13:19:20.653Z,64.62
2019-04-05T13:21:52.769Z,64.53
2019-04-05T13:24:24.716Z,64.53
2019-04-05T13:26:57.980Z,64.12
2019-04-05T13:29:30.005Z,63.59
2019-04-05T13:32:02.084Z,65.01
2019-04-05T13:34:34.093Z,64.54
2019-04-05T13:37:06.134Z,65.45
2019-04-05T13:39:38.286Z,65.45
2019-04-05T13:42:10.429Z,65.23
2019-04-05T13:44:42.581Z,64.90
2019-04-05T13:47:14.848Z,65.85
2019-04-05T13:49:49.129Z,65.41
2019-04-05T13:52:21.317Z,65.95
2019-04-05T13:54:54.585Z,66.20
2019-04-05T13:57:28.667Z,66.10
2019-04-05T14:00:00.878Z,67.25
2019-04-05T14:02:33.086Z,67.31
2019-04-05T14:05:05.428Z,67.61
2019-04-05T14:07:38.503Z,67.79
2019-04-05T14:10:12.503Z,66.32
2019-04-05T14:12:44.589Z,65.98
2019-04-05T14:15:16.611Z,65.34
2019-04-05T14:17:49.414Z,65.22
2019-04-05T14:20:24.337Z,64.40
2019-04-05T14:22:55.840Z,64.64
2019-04-05T14:25:30.166Z,65.34
2019-04-05T14:28:02.473Z,65.46
2019-04-05T14:30:35.771Z,65.32
2019-04-05T14:33:07.764Z,65.30
2019-04-05T14:35:39.844Z,65.41
2019-04-05T14:38:11.993Z,65.52
2019-04-05T14:40:44.004Z,64.45
2019-04-05T14:43:16.136Z,65.06
2019-04-05T14:45:48.179Z,65.06
2019-04-05T14:48:20.171Z,64.66
2019-04-05T14:50:52.206Z,65.41
2019-04-05T14:53:24.228Z,65.63
2019-04-05T14:55:59.067Z,65.63
2019-04-05T14:58:30.122Z,65.35
2019-04-05T15:01:02.370Z,64.70
2019-04-05T15:03:34.984Z,64.65
2019-04-05T15:06:07.169Z,64.19
2019-04-05T15:08:39.327Z,64.06
2019-04-05T15:11:11.410Z,64.06
2019-04-05T15:13:43.420Z,63.71
2019-04-05T15:16:15.470Z,63.85
2019-04-05T15:18:47.558Z,64.30
2019-04-05T15:21:19.631Z,64.30
2019-04-05T15:23:51.680Z,64.17
2019-04-05T15:26:23.760Z,63.95
2019-04-05T15:28:55.864Z,63.90
2019-04-05T15:31:27.939Z,63.29
2019-04-05T15:34:00.047Z,63.00
2019-04-05T15:36:32.305Z,63.25
2019-04-05T15:39:07.616Z,62.69
2019-04-05T15:41:39.715Z,63.05
2019-04-05T15:44:11.743Z,63.43
2019-04-05T15:46:43.829Z,63.18
2019-04-05T15:49:15.885Z,63.23
2019-04-05T15:51:47.919Z,63.32
2019-04-05T15:54:20.011Z,63.32
2019-04-05T15:56:52.139Z,63.29
2019-04-05T15:59:24.660Z,63.33
2019-04-05T16:01:56.886Z,63.74
2019-04-05T16:04:28.960Z,63.85
2019-04-05T16:07:00.955Z,63.94
2019-04-05T16:09:33.004Z,64.15
2019-04-05T16:12:05.175Z,64.29
2019-04-05T16:14:37.267Z,64.29
2019-04-05T16:17:12.398Z,64.10
2019-04-05T16:19:44.166Z,64.60
2019-04-05T16:22:16.130Z,64.60
2019-04-05T16:24:48.236Z,64.79
2019-04-05T16:27:20.249Z,64.28
2019-04-05T16:29:52.270Z,63.73
2019-04-05T16:32:24.269Z,64.49
2019-04-05T16:34:56.261Z,64.49
2019-04-05T16:37:28.331Z,64.56
2019-04-05T16:40:00.323Z,64.41
2019-04-05T16:42:32.419Z,64.41
2019-04-05T16:45:05.229Z,64.59
2019-04-05T16:47:37.223Z,64.17
2019-04-05T16:50:09.784Z,64.57
2019-04-05T16:52:45.115Z,64.86
2019-04-05T16:55:15.863Z,63.81
2019-04-05T16:57:48.093Z,64.38
2019-04-05T17:00:20.593Z,64.18
2019-04-05T17:02:52.647Z,64.24
2019-04-05T17:05:24.739Z,63.75
2019-04-05T17:07:56.797Z,63.89
2019-04-05T17:10:29.079Z,63.89
2019-04-05T17:13:01.281Z,64.09
2019-04-05T17:15:33.413Z,64.19
2019-04-05T17:18:05.478Z,64.19
2019-04-05T17:20:37.524Z,64.40
2019-04-05T17:23:09.636Z,64.51
2019-04-05T17:25:41.712Z,65.13
2019-04-05T17:28:13.711Z,65.10
2019-04-05T17:30:45.998Z,63.97
2019-04-05T17:33:18.124Z,64.26
2019-04-05T17:35:50.241Z,64.72
2019-04-05T17:38:22.243Z,65.41
2019-04-05T17:40:54.263Z,65.41
2019-04-05T17:43:26.317Z,65.70
2019-04-05T17:45:58.386Z,66.02
2019-04-05T17:48:30.447Z,66.52
2019-04-05T17:51:02.525Z,66.50
2019-04-05T17:53:34.674Z,66.60
2019-04-05T17:56:06.789Z,66.99
2019-04-05T17:58:38.929Z,67.36
2019-04-05T18:01:10.994Z,67.87
2019-04-05T18:03:43.070Z,68.14
2019-04-05T18:06:15.446Z,68.09
2019-04-05T18:08:47.493Z,68.65
2019-04-05T18:11:19.594Z,68.65
2019-04-05T18:13:51.615Z,68.83
2019-04-05T18:16:23.672Z,69.08
2019-04-05T18:18:55.741Z,69.18
2019-04-05T18:21:27.918Z,69.63
2019-04-05T18:24:00.070Z,70.02
2019-04-05T18:26:32.210Z,70.21
2019-04-05T18:29:04.268Z,70.42
2019-04-05T18:31:36.410Z,70.67
2019-04-05T18:34:08.479Z,70.94
2019-04-05T18:36:40.543Z,70.87
2019-04-05T18:39:12.700Z,71.05
2019-04-05T18:41:44.754Z,71.03
2019-04-05T18:44:16.817Z,71.23
2019-04-05T18:46:48.898Z,71.23
2019-04-05T18:49:21.105Z,71.38
2019-04-05T18:51:53.187Z,71.49
2019-04-05T18:54:25.344Z,71.64
2019-04-05T18:56:57.472Z,71.75
2019-04-05T18:59:29.603Z,72.01
2019-04-05T19:02:01.625Z,72.06
2019-04-05T19:04:33.744Z,72.19
2019-04-05T19:07:05.742Z,72.31
2019-04-05T19:09:37.849Z,72.52
2019-04-05T19:12:09.830Z,72.57
2019-04-05T19:14:41.986Z,72.72
2019-04-05T19:17:23.927Z,72.76
2019-04-05T19:19:48.023Z,72.92
2019-04-05T19:22:20.111Z,72.79
2019-04-05T19:24:52.215Z,72.99
2019-04-05T19:27:24.240Z,72.93
2019-04-05T19:29:56.278Z,73.12
2019-04-05T19:50:26.202Z,74.33
2019-04-05T19:52:58.206Z,74.42
2019-04-05T19:55:30.310Z,74.60
2019-04-05T19:58:02.391Z,74.62
2019-04-05T20:00:34.489Z,74.38
2019-04-05T20:03:06.600Z,74.29
2019-04-05T20:05:38.688Z,74.17
2019-04-05T20:08:10.674Z,74.20
2019-04-05T20:10:42.703Z,74.17
2019-04-05T20:13:14.859Z,74.25
2019-04-05T20:15:46.920Z,74.00
2019-04-05T20:18:18.941Z,74.03
2019-04-05T20:20:51.112Z,73.97
2019-04-05T20:23:23.243Z,74.34
2019-04-05T20:25:55.244Z,74.46
2019-04-05T20:28:27.299Z,74.34
2019-04-05T20:30:59.441Z,74.44
2019-04-05T20:33:31.555Z,74.60
2019-04-05T20:36:03.669Z,74.64
2019-04-05T20:38:35.728Z,74.86
2019-04-05T20:41:07.790Z,74.95
2019-04-05T20:43:39.974Z,75.25
2019-04-05T20:46:12.116Z,75.87
2019-04-05T20:48:44.177Z,75.83
2019-04-05T20:51:16.168Z,76.04
2019-04-05T20:53:48.225Z,76.94
2019-04-05T20:56:20.259Z,76.63
2019-04-05T20:58:52.405Z,76.77
2019-04-05T21:01:24.594Z,76.61
2019-04-05T21:03:56.616Z,76.78
2019-04-05T21:06:28.651Z,77.11
2019-04-05T21:09:00.742Z,77.68
2019-04-05T21:11:32.736Z,77.86
2019-04-05T21:14:04.826Z,78.15
2019-04-05T21:16:36.849Z,77.83
2019-04-05T21:19:08.933Z,77.86
2019-04-05T21:21:40.941Z,77.92
2019-04-05T21:24:12.989Z,78.49
2019-04-05T21:26:45.008Z,78.42
2019-04-05T21:29:17.073Z,78.62
2019-04-05T21:31:49.213Z,78.62
2019-04-05T21:34:21.285Z,78.28
2019-04-05T21:36:53.316Z,78.41
2019-04-05T21:39:25.363Z,78.34
2019-04-05T21:41:57.382Z,78.23
2019-04-05T21:44:29.408Z,78.16
2019-04-05T21:47:01.421Z,77.73
2019-04-05T21:49:33.471Z,77.65
2019-04-05T21:52:05.511Z,77.82
2019-04-05T21:54:47.205Z,77.13
2019-04-05T21:57:11.558Z,77.00
2019-04-05T21:59:43.580Z,77.59
2019-04-05T22:02:16.087Z,77.43
2019-04-05T22:04:48.128Z,77.99
2019-04-05T22:07:20.107Z,78.52
2019-04-05T22:09:52.202Z,78.74
2019-04-05T22:12:24.214Z,78.53
2019-04-05T22:14:56.263Z,78.39
2019-04-05T22:17:28.343Z,78.98
2019-04-05T22:20:00.457Z,78.92
2019-04-05T22:22:32.452Z,79.16
2019-04-05T22:25:05.148Z,79.32
2019-04-05T22:27:37.154Z,79.45
2019-04-05T22:30:09.363Z,79.85
2019-04-05T22:32:41.358Z,80.02
2019-04-05T22:35:13.372Z,80.26
2019-04-05T22:37:45.405Z,80.27
2019-04-05T22:40:17.485Z,80.34
2019-04-05T22:42:49.425Z,80.18
2019-04-05T22:45:21.463Z,80.16
2019-04-05T22:47:53.441Z,79.77
2019-04-05T22:50:25.461Z,79.65
2019-04-05T22:52:57.478Z,79.35
2019-04-05T22:55:29.524Z,79.19
2019-04-05T22:58:01.534Z,79.34
2019-04-05T23:00:33.496Z,79.45
2019-04-05T23:03:05.522Z,79.60
2019-04-05T23:05:37.523Z,79.46
2019-04-05T23:08:09.626Z,80.00
2019-04-05T23:10:41.571Z,79.58
2019-04-05T23:13:13.580Z,79.72
2019-04-05T23:15:45.598Z,79.82
2019-04-05T23:18:17.609Z,79.74
2019-04-05T23:20:49.622Z,79.70
2019-04-05T23:23:21.647Z,80.19
2019-04-05T23:25:53.654Z,80.19
2019-04-05T23:28:25.679Z,80.19
2019-04-05T23:30:57.652Z,79.95
2019-04-05T23:33:29.645Z,79.87
2019-04-05T23:36:01.584Z,79.65
2019-04-05T23:38:33.579Z,79.63
2019-04-05T23:41:05.522Z,79.37
2019-04-05T23:43:37.508Z,79.03
2019-04-05T23:46:09.533Z,79.33
2019-04-05T23:48:41.529Z,79.36
2019-04-05T23:51:13.522Z,79.67
2019-04-05T23:53:45.555Z,79.74
2019-04-05T23:56:17.548Z,79.76
2019-04-05T23:58:49.556Z,79.70
